createdAt,value
2022-12-25T00:04:46.149Z,89.89
2022-12-25T00:10:05.705Z,89.83
2022-12-25T00:15:25.256Z,89.49
2022-12-25T00:20:44.843Z,89.52
2022-12-25T00:26:03.717Z,90.54
2022-12-25T00:31:22.756Z,91.17
2022-12-25T00:36:42.361Z,91.5
2022-12-25T00:42:00.874Z,90.66
2022-12-25T00:47:20.552Z,90.74
2022-12-25T00:52:39.370Z,91.55
2022-12-25T00:57:59.118Z,91.32
2022-12-25T01:03:18.960Z,91.52
2022-12-25T01:08:38.048Z,90.77
2022-12-25T01:13:57.799Z,90.44
2022-12-25T01:19:17.153Z,90.48
2022-12-25T01:24:35.900Z,90.64
2022-12-25T01:29:55.020Z,90.68
2022-12-25T01:35:14.143Z,90.8
2022-12-25T01:40:33.515Z,91.4
2022-12-25T01:45:53.157Z,91.36
2022-12-25T01:51:11.929Z,91.31
2022-12-25T01:56:31.992Z,91.38
2022-12-25T02:01:51.726Z,91.14
2022-12-25T02:07:11.219Z,90.14
2022-12-25T02:13:45.384Z,91.49
2022-12-25T02:17:48.307Z,91.27
2022-12-25T02:23:07.980Z,90.53
2022-12-25T02:28:27.032Z,90.16
2022-12-25T02:33:46.488Z,90.51
2022-12-25T02:39:05.287Z,90.4
2022-12-25T02:44:24.094Z,90.45
2022-12-25T02:49:43.738Z,90.96
2022-12-25T02:55:03.175Z,91.74
2022-12-25T03:00:23.435Z,92.39
2022-12-25T03:05:42.847Z,92.64
2022-12-25T03:11:01.705Z,92.18
2022-12-25T03:16:20.743Z,91.96
2022-12-25T03:21:40.197Z,91.97
2022-12-25T03:26:59.868Z,92.18
2022-12-25T03:32:19.227Z,92.36
2022-12-25T03:37:38.042Z,92.47
2022-12-25T03:42:56.171Z,92.55
2022-12-25T03:48:15.720Z,92.61
2022-12-25T03:53:35.252Z,92.68
2022-12-25T03:58:54.412Z,92.22
2022-12-25T04:04:13.309Z,92.58
2022-12-25T04:09:32.935Z,92.6
2022-12-25T04:14:51.939Z,92.73
2022-12-25T04:20:10.950Z,92.47
2022-12-25T04:25:29.387Z,92.83
2022-12-25T04:30:48.722Z,93.22
2022-12-25T04:36:07.654Z,93.61
2022-12-25T04:41:27.716Z,93.3
2022-12-25T04:46:46.778Z,94.7
2022-12-25T04:52:05.708Z,96.02
2022-12-25T04:57:25.396Z,96.16
2022-12-25T05:02:45.162Z,97.11
2022-12-25T05:08:04.612Z,97.12
2022-12-25T05:13:24.300Z,97.21
2022-12-25T05:18:43.239Z,98.38
2022-12-25T05:24:02.947Z,98.52
2022-12-25T05:29:22.160Z,98.09
2022-12-25T05:34:41.012Z,95.03
2022-12-25T05:40:00.384Z,93.89
2022-12-25T05:45:20.178Z,94.27
2022-12-25T05:50:39.824Z,96.02
2022-12-25T05:55:59.171Z,97.19
2022-12-25T06:01:17.861Z,97.74
2022-12-25T06:06:36.805Z,97.62
2022-12-25T06:11:55.806Z,97.36
2022-12-25T06:17:16.311Z,97.12
2022-12-25T06:22:34.877Z,96.78
2022-12-25T06:27:53.746Z,96.83
2022-12-25T06:33:14.012Z,97.03
2022-12-25T06:38:32.875Z,97.76
2022-12-25T06:43:51.463Z,98.13
2022-12-25T06:49:10.764Z,98.4
2022-12-25T06:54:30.449Z,99.1
2022-12-25T06:59:54.992Z,97.7
2022-12-25T07:05:09.353Z,97.97
2022-12-25T07:10:28.535Z,98.39
2022-12-25T07:15:48.299Z,98.78
2022-12-25T07:21:07.456Z,98.73
2022-12-25T07:26:26.787Z,98.5
2022-12-25T07:31:46.265Z,98.79
2022-12-25T07:37:05.943Z,98.93
2022-12-25T07:42:25.604Z,98.22
2022-12-25T07:47:44.549Z,98.5
2022-12-25T07:53:03.565Z,98.5
2022-12-25T07:58:23.486Z,97.82
2022-12-25T08:03:42.202Z,97.3
2022-12-25T08:09:01.332Z,98.36
2022-12-25T08:14:20.363Z,97.83
2022-12-25T08:19:39.292Z,96.31
2022-12-25T08:24:58.416Z,94.84
2022-12-25T08:30:17.279Z,91.93
2022-12-25T08:35:37.042Z,92.67
2022-12-25T08:40:56.447Z,93.21
2022-12-25T08:46:16.105Z,94.58
2022-12-25T08:51:35.313Z,93.69
2022-12-25T08:56:58.648Z,94.24
2022-12-25T09:02:14.116Z,95.12
2022-12-25T09:07:32.735Z,94.56
2022-12-25T09:12:53.075Z,94.74
2022-12-25T09:18:12.404Z,94.2
2022-12-25T09:23:31.329Z,91.99
2022-12-25T09:28:52.143Z,90.23
2022-12-25T09:34:12.576Z,89.7
2022-12-25T09:39:28.215Z,89.82
2022-12-25T09:44:46.912Z,88.36
2022-12-25T09:50:06.170Z,87.11
2022-12-25T09:55:25.444Z,84.78
2022-12-25T10:00:44.543Z,81.87
2022-12-25T10:06:03.316Z,79.51
2022-12-25T10:11:22.274Z,79.22
2022-12-25T10:16:41.819Z,80.46
2022-12-25T10:22:01.285Z,79.85
2022-12-25T10:27:20.167Z,81.24
2022-12-25T10:32:39.008Z,82.22
2022-12-25T10:37:58.068Z,83.18
2022-12-25T10:43:17.133Z,83.09
2022-12-25T10:48:36.194Z,83.68
2022-12-25T10:53:55.646Z,81.86
2022-12-25T10:59:14.500Z,82.32
2022-12-25T11:04:34.167Z,81.94
2022-12-25T11:09:54.672Z,82
2022-12-25T11:15:12.256Z,82.56
2022-12-25T11:20:43.812Z,82.02
2022-12-25T11:25:51.166Z,81.33
2022-12-25T11:31:10.209Z,80.69
2022-12-25T11:36:30.130Z,81.22
2022-12-25T11:41:49.465Z,81.19
2022-12-25T11:47:08.013Z,81.51
2022-12-25T11:52:27.165Z,81.51
2022-12-25T11:57:46.645Z,81.83
2022-12-25T12:03:05.682Z,80.16
2022-12-25T12:08:24.728Z,80.16
2022-12-25T12:13:44.375Z,80.68
2022-12-25T12:19:04.105Z,79.94
2022-12-25T12:24:23.721Z,79.83
2022-12-25T12:30:57.907Z,79.65
2022-12-25T12:35:01.431Z,80.36
2022-12-25T12:40:20.699Z,80.72
2022-12-25T12:45:39.551Z,81.17
2022-12-25T12:50:58.948Z,81.23
2022-12-25T12:56:18.006Z,81.51
2022-12-25T13:01:37.254Z,79.12
2022-12-25T13:06:56.611Z,77.53
2022-12-25T13:12:25.896Z,76.92
2022-12-25T13:17:34.754Z,76.51
2022-12-25T13:22:54.289Z,75.35
2022-12-25T13:28:14.093Z,75.28
2022-12-25T13:33:33.303Z,75.64
2022-12-25T13:38:52.599Z,75.58
2022-12-25T13:44:12.126Z,74.91
2022-12-25T13:49:31.753Z,74.35
2022-12-25T13:54:50.406Z,74.12
2022-12-25T14:00:09.644Z,73.6
2022-12-25T14:05:29.315Z,75.61
2022-12-25T14:10:48.431Z,76.5
2022-12-25T14:16:07.167Z,77.44
2022-12-25T14:21:26.352Z,78.12
2022-12-25T14:26:45.346Z,78.07
2022-12-25T14:32:04.647Z,78.47
2022-12-25T14:37:23.500Z,78.79
2022-12-25T14:42:42.909Z,79.14
2022-12-25T14:48:01.735Z,79.69
2022-12-25T14:53:21.999Z,80.33
2022-12-25T14:58:41.480Z,81.56
2022-12-25T15:04:01.106Z,82.91
2022-12-25T15:09:19.693Z,84.19
2022-12-25T15:14:38.910Z,85.13
2022-12-25T15:19:57.863Z,85.96
2022-12-25T15:25:16.890Z,86.86
2022-12-25T15:30:35.699Z,86.69
2022-12-25T15:36:30.048Z,86.91
2022-12-25T15:41:49.212Z,87.17
2022-12-25T15:47:08.362Z,87.66
2022-12-25T15:52:27.660Z,87.28
2022-12-25T15:57:47.064Z,88.25
2022-12-25T16:03:06.330Z,88.94
2022-12-25T16:08:25.982Z,90.06
2022-12-25T16:13:44.855Z,90.32
2022-12-25T16:19:03.411Z,90.63
2022-12-25T16:24:22.683Z,91.13
2022-12-25T16:29:41.840Z,90.9
2022-12-25T16:35:01.509Z,91.49
2022-12-25T16:40:20.239Z,92.24
2022-12-25T16:45:39.793Z,92.7
2022-12-25T16:50:59.037Z,92.76
2022-12-25T16:56:18.614Z,91.68
2022-12-25T17:01:37.594Z,93.46
2022-12-25T17:06:57.276Z,93.55
2022-12-25T17:12:16.166Z,94.16
2022-12-25T17:17:35.791Z,93.62
2022-12-25T17:22:54.989Z,94.39
2022-12-25T17:28:14.791Z,95.2
2022-12-25T17:33:34.148Z,95.36
2022-12-25T17:38:53.500Z,95.35
2022-12-25T17:44:13.168Z,93.97
2022-12-25T17:49:32.082Z,94.96
2022-12-25T17:54:50.897Z,95.92
2022-12-25T18:00:09.174Z,96.74
2022-12-25T18:05:28.285Z,97.15
2022-12-25T18:10:47.763Z,97.5
2022-12-25T18:16:06.599Z,97.18
2022-12-25T18:21:25.807Z,96.65
2022-12-25T18:26:44.630Z,97.25
2022-12-25T18:32:03.930Z,97.81
2022-12-25T18:37:23.269Z,98.22
2022-12-25T18:42:42.634Z,98.49
2022-12-25T18:48:01.592Z,98.79
2022-12-25T18:53:20.964Z,98.9
2022-12-25T18:58:40.417Z,98.99
2022-12-25T19:04:04.311Z,98.89
2022-12-25T19:09:18.790Z,98.81
2022-12-25T19:14:46.977Z,98.21
2022-12-25T19:19:57.890Z,95.72
2022-12-25T19:25:17.081Z,92.98
2022-12-25T19:30:36.181Z,91.2
2022-12-25T19:35:55.906Z,90.35
2022-12-25T19:41:14.654Z,91.1
2022-12-25T19:46:33.627Z,90.2
2022-12-25T19:51:53.000Z,88.23
2022-12-25T19:57:11.915Z,84.32
2022-12-25T20:02:31.137Z,88
2022-12-25T20:07:50.309Z,87.22
2022-12-25T20:13:09.549Z,86.63
2022-12-25T20:18:28.945Z,87.78
2022-12-25T20:23:47.728Z,87.68
2022-12-25T20:29:06.577Z,87.23
2022-12-25T20:34:25.635Z,86.79
2022-12-25T20:39:45.876Z,86.57
2022-12-25T20:45:04.843Z,86.39
2022-12-25T20:50:23.411Z,86.5
2022-12-25T20:55:43.025Z,86.74
2022-12-25T21:01:02.656Z,87.19
2022-12-25T21:06:22.286Z,86.38
2022-12-25T21:11:41.863Z,85.7
2022-12-25T21:17:01.026Z,85.12
2022-12-25T21:22:20.224Z,84.21
2022-12-25T21:27:39.198Z,83.46
2022-12-25T21:32:58.832Z,83.64
2022-12-25T21:38:17.776Z,84.11
2022-12-25T21:43:37.172Z,84.02
2022-12-25T21:48:56.889Z,83.22
2022-12-25T21:54:15.819Z,82.23
2022-12-25T21:59:34.619Z,81.79
2022-12-25T22:04:53.976Z,81.44
2022-12-25T22:10:13.725Z,81.17
2022-12-25T22:15:32.560Z,81.15
2022-12-25T22:20:51.848Z,80.87
2022-12-25T22:26:14.604Z,80.51
2022-12-25T22:31:31.278Z,81.08
2022-12-25T22:36:50.471Z,81.56
2022-12-25T22:42:09.790Z,81.62
2022-12-25T22:47:28.827Z,81.62
2022-12-25T22:52:48.165Z,80.72
2022-12-25T22:58:07.780Z,79.51
2022-12-25T23:03:26.866Z,78.66
2022-12-25T23:08:45.757Z,78.03
2022-12-25T23:14:05.312Z,77.64
2022-12-25T23:19:23.695Z,77.6
2022-12-25T23:24:42.572Z,77.87
2022-12-25T23:30:01.988Z,78.43
2022-12-25T23:35:21.553Z,78.99
2022-12-25T23:40:41.038Z,79.12
2022-12-25T23:46:00.310Z,78.74
2022-12-25T23:51:19.977Z,79.04
2022-12-25T23:56:39.611Z,79.1
